createdAt,value
2023-04-07T00:01:45.325Z,9.30
2023-04-07T00:04:12.905Z,10.82
2023-04-07T00:06:40.536Z,9.77
2023-04-07T00:09:07.967Z,9.70
2023-04-07T00:11:36.709Z,10.85
2023-04-07T00:14:04.065Z,9.73
2023-04-07T00:16:31.491Z,10.45
2023-04-07T00:18:58.963Z,10.23
2023-04-07T00:21:27.078Z,10.75
2023-04-07T00:23:54.615Z,10.52
2023-04-07T00:26:22.309Z,9.55
2023-04-07T00:28:52.008Z,10.18
2023-04-07T00:31:19.548Z,10.43
2023-04-07T00:33:48.375Z,10.70
2023-04-07T00:36:15.965Z,11.00
2023-04-07T00:38:43.415Z,11.35
2023-04-07T00:41:11.005Z,11.93
2023-04-07T00:43:38.418Z,10.60
2023-04-07T00:46:07.465Z,11.35
2023-04-07T00:48:35.146Z,11.75
2023-04-07T00:51:02.916Z,11.77
2023-04-07T00:53:30.331Z,11.27
2023-04-07T00:55:58.000Z,11.23
2023-04-07T00:58:25.384Z,11.02
2023-04-07T01:00:56.311Z,12.25
2023-04-07T01:03:30.762Z,11.13
2023-04-07T01:06:03.609Z,12.40
2023-04-07T01:08:35.727Z,12.93
2023-04-07T01:11:09.990Z,13.45
2023-04-07T01:13:46.215Z,13.70
2023-04-07T01:16:24.012Z,12.82
2023-04-07T01:18:55.885Z,13.50
2023-04-07T01:21:23.901Z,12.95
2023-04-07T01:24:02.348Z,13.43
2023-04-07T01:26:33.371Z,13.43
2023-04-07T01:29:15.267Z,12.77
2023-04-07T01:31:45.626Z,12.65
2023-04-07T01:34:13.726Z,13.88
2023-04-07T01:36:44.371Z,15.15
2023-04-07T01:39:14.830Z,14.32
2023-04-07T01:41:46.085Z,15.07
2023-04-07T01:44:13.984Z,14.02
2023-04-07T01:46:44.508Z,14.40
2023-04-07T01:49:16.496Z,13.88
2023-04-07T01:51:44.402Z,14.82
2023-04-07T01:54:14.883Z,14.25
2023-04-07T01:56:42.430Z,15.52
2023-04-07T01:59:12.926Z,15.48
2023-04-07T02:01:41.119Z,15.18
2023-04-07T02:06:49.261Z,14.85
2023-04-07T02:09:20.550Z,14.57
2023-04-07T02:11:51.140Z,16.65
2023-04-07T02:14:21.272Z,16.70
2023-04-07T02:17:00.428Z,15.43
2023-04-07T02:19:32.917Z,16.48
2023-04-07T02:22:02.408Z,16.67
2023-04-07T02:24:30.066Z,16.30
2023-04-07T02:26:59.558Z,17.08
2023-04-07T02:29:27.022Z,17.58
2023-04-07T02:31:56.731Z,16.80
2023-04-07T02:34:27.353Z,16.70
2023-04-07T02:36:55.130Z,18.13
2023-04-07T02:39:23.909Z,17.88
2023-04-07T02:41:53.640Z,18.40
2023-04-07T02:44:24.653Z,16.77
2023-04-07T02:46:52.451Z,17.35
2023-04-07T02:51:49.968Z,18.02
2023-04-07T02:54:18.754Z,19.23
2023-04-07T02:56:53.566Z,18.05
2023-04-07T02:59:24.418Z,18.48
2023-04-07T03:01:52.372Z,19.77
2023-04-07T03:04:22.133Z,22.58
2023-04-07T03:06:50.285Z,19.83
2023-04-07T03:09:17.971Z,18.65
2023-04-07T03:11:47.324Z,19.00
2023-04-07T03:14:16.347Z,20.48
2023-04-07T03:16:49.302Z,20.05
2023-04-07T03:19:17.555Z,20.33
2023-04-07T03:21:48.643Z,19.45
2023-04-07T03:24:16.263Z,20.80
2023-04-07T03:26:45.334Z,19.85
2023-04-07T03:29:21.570Z,19.02
2023-04-07T03:31:50.869Z,20.63
2023-04-07T03:34:23.033Z,19.67
2023-04-07T03:36:50.607Z,23.42
2023-04-07T03:39:18.317Z,22.52
2023-04-07T03:41:47.869Z,21.10
2023-04-07T03:44:17.483Z,19.88
2023-04-07T03:46:56.369Z,21.95
2023-04-07T03:49:27.532Z,22.10
2023-04-07T03:51:57.530Z,21.48
2023-04-07T03:54:27.296Z,22.05
2023-04-07T03:56:57.818Z,22.63
2023-04-07T03:59:27.780Z,21.48
2023-04-07T04:02:02.643Z,20.25
2023-04-07T04:04:32.415Z,20.98
2023-04-07T04:07:01.454Z,21.27
2023-04-07T04:09:39.308Z,22.08
2023-04-07T04:14:37.556Z,21.98
2023-04-07T04:17:08.759Z,22.00
2023-04-07T04:19:44.825Z,27.63
2023-04-07T04:22:34.965Z,22.45
2023-04-07T04:25:04.121Z,20.15
2023-04-07T04:27:32.230Z,21.20
2023-04-07T04:30:12.605Z,21.77
2023-04-07T04:32:48.307Z,20.73
2023-04-07T04:35:16.986Z,21.67
2023-04-07T04:37:59.702Z,20.55
2023-04-07T04:40:31.136Z,20.63
2023-04-07T04:42:59.278Z,20.92
2023-04-07T04:45:29.205Z,21.00
2023-04-07T04:48:02.360Z,23.08
2023-04-07T04:50:29.833Z,23.08
2023-04-07T04:52:57.613Z,24.00
2023-04-07T04:55:25.126Z,23.00
2023-04-07T04:57:56.328Z,24.48
2023-04-07T05:00:33.624Z,25.10
2023-04-07T05:03:06.485Z,25.35
2023-04-07T05:05:38.725Z,24.00
2023-04-07T05:08:07.479Z,25.00
2023-04-07T05:10:39.555Z,24.83
2023-04-07T05:13:10.419Z,26.20
2023-04-07T05:15:40.437Z,24.20
2023-04-07T05:18:11.686Z,24.42
2023-04-07T05:20:39.506Z,27.02
2023-04-07T05:23:09.296Z,27.75
2023-04-07T05:25:40.734Z,25.15
2023-04-07T05:28:09.283Z,26.23
2023-04-07T05:30:38.012Z,26.13
2023-04-07T05:33:08.362Z,27.25
2023-04-07T05:35:56.108Z,25.65
2023-04-07T05:38:23.569Z,26.60
2023-04-07T05:40:53.264Z,25.30
2023-04-07T05:43:26.474Z,24.95
2023-04-07T05:45:54.176Z,23.60
2023-04-07T05:48:22.547Z,24.20
2023-04-07T05:50:50.310Z,22.23
2023-04-07T05:53:21.090Z,21.25
2023-04-07T05:55:48.694Z,21.10
2023-04-07T05:58:53.790Z,16.83
2023-04-07T06:01:21.743Z,19.27
2023-04-07T06:03:49.616Z,19.80
2023-04-07T06:06:23.604Z,18.00
2023-04-07T06:08:52.658Z,18.83
2023-04-07T06:11:21.121Z,20.67
2023-04-07T06:13:49.292Z,18.08
2023-04-07T06:16:18.230Z,17.90
2023-04-07T06:18:48.205Z,21.83
2023-04-07T06:21:16.144Z,20.05
2023-04-07T06:23:44.829Z,20.23
2023-04-07T06:26:14.075Z,23.42
2023-04-07T06:28:42.120Z,21.65
2023-04-07T06:33:39.821Z,21.02
2023-04-07T06:36:07.859Z,22.48
2023-04-07T06:38:39.783Z,23.50
2023-04-07T06:41:08.648Z,24.23
2023-04-07T06:43:37.606Z,23.08
2023-04-07T06:46:09.748Z,21.50
2023-04-07T06:48:37.524Z,21.02
2023-04-07T06:53:33.001Z,19.20
2023-04-07T06:56:04.068Z,19.58
2023-04-07T06:58:34.766Z,19.13
2023-04-07T07:01:09.117Z,18.08
2023-04-07T07:03:36.697Z,18.92
2023-04-07T07:06:04.466Z,18.00
2023-04-07T07:08:32.161Z,17.77
2023-04-07T07:13:27.881Z,16.42
2023-04-07T07:18:26.671Z,17.80
2023-04-07T07:20:55.833Z,19.73
2023-04-07T07:23:25.359Z,16.65
2023-04-07T07:25:53.164Z,18.58
2023-04-07T07:30:54.390Z,16.50
2023-04-07T07:33:22.670Z,18.35
2023-04-07T07:35:51.616Z,15.95
2023-04-07T07:38:19.067Z,17.50
2023-04-07T07:40:47.039Z,16.70
2023-04-07T07:43:14.946Z,15.55
2023-04-07T07:48:09.899Z,16.15
2023-04-07T07:50:37.578Z,14.77
2023-04-07T07:53:09.767Z,14.23
2023-04-07T07:55:51.225Z,14.45
2023-04-07T07:58:19.844Z,14.07
2023-04-07T08:00:47.382Z,13.10
2023-04-07T08:03:19.194Z,12.93
2023-04-07T08:05:46.986Z,13.27
2023-04-07T08:08:18.174Z,11.48
2023-04-07T08:10:46.008Z,13.05
2023-04-07T08:13:16.183Z,13.00
2023-04-07T08:15:44.167Z,11.10
2023-04-07T08:18:11.807Z,10.73
2023-04-07T08:20:39.534Z,10.82
2023-04-07T08:25:39.860Z,9.35
2023-04-07T08:28:07.381Z,11.07
2023-04-07T08:30:35.031Z,8.80
2023-04-07T08:33:05.537Z,8.10
2023-04-07T08:35:33.530Z,9.25
2023-04-07T08:38:02.962Z,8.18
2023-04-07T08:40:33.696Z,7.63
2023-04-07T08:43:06.403Z,7.55
2023-04-07T08:45:42.569Z,8.27
2023-04-07T08:48:17.632Z,8.80
2023-04-07T08:50:53.058Z,8.02
2023-04-07T08:53:24.155Z,8.18
2023-04-07T08:55:54.028Z,7.03
2023-04-07T08:58:27.754Z,6.47
2023-04-07T09:00:55.765Z,7.57
2023-04-07T09:05:52.617Z,8.20
2023-04-07T09:08:20.480Z,7.60
2023-04-07T09:10:51.093Z,6.78
2023-04-07T09:13:18.558Z,6.57
2023-04-07T09:15:47.308Z,6.40
2023-04-07T09:18:16.523Z,6.63
2023-04-07T09:20:57.508Z,7.35
2023-04-07T09:23:29.536Z,6.93
2023-04-07T09:25:59.690Z,5.95
2023-04-07T09:28:42.994Z,6.38
2023-04-07T09:31:13.269Z,6.10
2023-04-07T09:33:41.253Z,6.32
2023-04-07T09:36:08.932Z,7.22
2023-04-07T09:38:37.014Z,6.55
2023-04-07T09:41:06.679Z,7.15
2023-04-07T09:43:34.609Z,6.85
2023-04-07T09:46:20.351Z,6.65
2023-04-07T09:48:49.211Z,7.05
2023-04-07T09:51:17.791Z,7.88
2023-04-07T09:53:49.575Z,8.05
2023-04-07T09:56:21.208Z,8.55
2023-04-07T09:58:51.298Z,9.73
2023-04-07T10:01:21.553Z,10.40
2023-04-07T10:03:52.957Z,9.27
2023-04-07T10:06:22.417Z,10.20
2023-04-07T10:08:52.551Z,9.93
2023-04-07T10:11:20.747Z,11.02
2023-04-07T10:13:48.587Z,10.32
2023-04-07T10:18:51.766Z,10.48
2023-04-07T10:21:20.378Z,10.10
2023-04-07T10:23:57.200Z,10.00
2023-04-07T10:26:27.566Z,9.18
2023-04-07T10:28:58.664Z,8.57
2023-04-07T10:31:26.385Z,8.90
2023-04-07T10:33:56.449Z,8.68
2023-04-07T10:36:24.553Z,10.13
2023-04-07T10:39:11.014Z,10.77
2023-04-07T10:41:39.205Z,9.13
2023-04-07T10:44:08.034Z,8.85
2023-04-07T10:47:02.447Z,8.68
2023-04-07T10:49:31.330Z,7.97
2023-04-07T10:52:17.325Z,8.77
2023-04-07T10:54:44.775Z,8.75
2023-04-07T10:57:15.849Z,8.13
2023-04-07T11:00:06.728Z,8.82
2023-04-07T11:02:35.021Z,8.30
2023-04-07T11:05:04.897Z,7.00
2023-04-07T11:07:50.034Z,7.72
2023-04-07T11:10:19.471Z,7.53
2023-04-07T11:13:02.119Z,7.63
2023-04-07T11:15:35.777Z,7.38
2023-04-07T11:18:13.514Z,7.50
2023-04-07T11:20:52.646Z,7.55
2023-04-07T11:23:21.678Z,7.32
2023-04-07T11:25:52.257Z,7.18
2023-04-07T11:28:19.990Z,6.32
2023-04-07T11:30:49.779Z,5.57
2023-04-07T11:33:22.269Z,6.68
2023-04-07T11:35:55.973Z,6.85
2023-04-07T11:38:24.391Z,6.70
2023-04-07T11:40:51.984Z,7.13
2023-04-07T11:43:20.922Z,5.88
2023-04-07T11:45:51.120Z,6.43
2023-04-07T11:48:28.138Z,7.20
2023-04-07T11:50:58.886Z,6.90
2023-04-07T11:53:27.038Z,6.13
2023-04-07T11:56:02.227Z,5.70
2023-04-07T11:58:29.859Z,5.45
2023-04-07T12:00:58.028Z,5.53
2023-04-07T12:03:28.716Z,5.35
2023-04-07T12:05:59.021Z,5.00
2023-04-07T12:08:38.223Z,5.20
2023-04-07T12:11:09.119Z,5.50
2023-04-07T12:13:38.827Z,6.28
2023-04-07T12:16:08.915Z,5.68
2023-04-07T12:18:36.524Z,5.60
2023-04-07T12:21:05.869Z,5.75
2023-04-07T12:23:35.647Z,5.82
2023-04-07T12:26:03.241Z,4.90
2023-04-07T12:28:30.668Z,4.40
2023-04-07T12:30:58.936Z,4.65
2023-04-07T12:33:26.614Z,5.03
2023-04-07T12:35:54.325Z,5.18
2023-04-07T12:38:23.189Z,4.88
2023-04-07T12:40:51.680Z,5.25
2023-04-07T12:43:19.294Z,5.00
2023-04-07T12:45:47.154Z,5.03
2023-04-07T12:48:18.521Z,5.78
2023-04-07T12:50:46.112Z,4.93
2023-04-07T12:53:13.654Z,5.50
2023-04-07T12:55:45.134Z,5.30
2023-04-07T12:58:13.462Z,5.55
2023-04-07T13:00:41.599Z,6.00
2023-04-07T13:03:09.844Z,5.30
2023-04-07T13:05:39.700Z,5.57
2023-04-07T13:08:07.896Z,5.32
2023-04-07T13:10:40.417Z,5.20
2023-04-07T13:13:09.439Z,5.18
2023-04-07T13:15:36.873Z,4.97
2023-04-07T13:18:06.713Z,4.55
2023-04-07T13:20:36.492Z,4.80
2023-04-07T13:23:09.667Z,4.63
2023-04-07T13:25:37.803Z,4.10
2023-04-07T13:28:05.861Z,5.45
2023-04-07T13:30:37.124Z,5.50
2023-04-07T13:33:04.717Z,5.65
2023-04-07T13:35:36.945Z,5.78
2023-04-07T13:38:04.754Z,5.95
2023-04-07T13:43:05.109Z,7.45
2023-04-07T13:45:33.702Z,7.85
2023-04-07T13:48:06.225Z,7.82
2023-04-07T13:50:34.035Z,8.43
2023-04-07T13:53:01.582Z,8.63
2023-04-07T13:55:29.216Z,9.02
2023-04-07T13:57:56.892Z,8.02
2023-04-07T14:00:24.383Z,8.00
2023-04-07T14:02:54.722Z,7.40
2023-04-07T14:05:29.429Z,8.80
2023-04-07T14:07:56.834Z,9.95
2023-04-07T14:10:24.368Z,8.30
2023-04-07T14:12:52.370Z,8.80
2023-04-07T14:15:21.536Z,8.32
2023-04-07T14:17:50.098Z,7.97
2023-04-07T14:20:17.687Z,7.85
2023-04-07T14:22:47.760Z,7.25
2023-04-07T14:25:18.586Z,7.15
2023-04-07T14:27:46.120Z,6.30
2023-04-07T14:30:13.895Z,7.18
2023-04-07T14:32:42.419Z,5.32
2023-04-07T14:35:10.604Z,5.20
2023-04-07T14:37:39.439Z,5.63
2023-04-07T14:40:09.328Z,5.28
2023-04-07T14:42:39.053Z,4.78
2023-04-07T14:45:07.354Z,5.28
2023-04-07T14:47:34.966Z,6.07
2023-04-07T14:50:02.835Z,6.38
2023-04-07T14:55:00.027Z,6.90
2023-04-07T14:57:29.406Z,7.68
2023-04-07T14:59:56.810Z,6.63
2023-04-07T15:02:24.460Z,7.70
2023-04-07T15:04:52.400Z,7.35
2023-04-07T15:07:19.952Z,7.32
2023-04-07T15:09:48.008Z,6.93
2023-04-07T15:12:15.661Z,7.63
2023-04-07T15:14:45.083Z,6.32
2023-04-07T15:17:13.215Z,7.88
2023-04-07T15:19:40.638Z,6.57
2023-04-07T15:22:09.754Z,7.50
2023-04-07T15:24:38.983Z,6.07
2023-04-07T15:27:07.118Z,7.13
2023-04-07T15:29:34.929Z,6.32
2023-04-07T15:32:11.122Z,9.45
2023-04-07T15:34:38.780Z,6.90
2023-04-07T15:37:12.260Z,7.00
2023-04-07T15:39:39.759Z,7.18
2023-04-07T15:42:11.238Z,7.50
2023-04-07T15:44:39.633Z,6.25
2023-04-07T15:47:12.611Z,7.30
2023-04-07T15:49:43.517Z,11.88
2023-04-07T15:52:11.904Z,11.23
2023-04-07T15:54:39.300Z,9.73
2023-04-07T15:57:06.996Z,10.05
2023-04-07T15:59:37.112Z,8.82
2023-04-07T16:02:04.690Z,9.48
2023-04-07T16:04:34.961Z,9.45
2023-04-07T16:07:02.903Z,8.73
2023-04-07T16:09:30.721Z,8.38
2023-04-07T16:12:01.944Z,8.05
2023-04-07T16:14:31.107Z,8.50
2023-04-07T16:16:59.427Z,7.28
2023-04-07T16:19:27.047Z,7.80
2023-04-07T16:21:56.117Z,7.22
2023-04-07T16:24:25.167Z,9.50
2023-04-07T16:26:52.634Z,8.25
2023-04-07T16:29:20.430Z,8.23
2023-04-07T16:31:47.831Z,7.15
2023-04-07T16:34:15.448Z,8.43
2023-04-07T16:36:42.854Z,7.07
2023-04-07T16:39:11.608Z,6.47
2023-04-07T16:41:39.038Z,6.53
2023-04-07T16:44:09.755Z,6.22
2023-04-07T16:46:39.989Z,6.88
2023-04-07T16:49:07.612Z,6.38
2023-04-07T16:51:38.577Z,6.90
2023-04-07T16:54:05.962Z,6.85
2023-04-07T16:56:37.670Z,7.25
2023-04-07T16:59:05.123Z,7.97
2023-04-07T17:01:32.591Z,8.18
2023-04-07T17:04:00.152Z,7.40
2023-04-07T17:06:28.515Z,7.53
2023-04-07T17:08:55.938Z,7.18
2023-04-07T17:11:23.449Z,8.40
2023-04-07T17:13:57.549Z,9.00
2023-04-07T17:16:25.409Z,9.13
2023-04-07T17:18:55.864Z,8.20
2023-04-07T17:21:23.300Z,8.73
2023-04-07T17:23:51.008Z,9.40
2023-04-07T17:26:18.597Z,8.93
2023-04-07T17:28:46.714Z,9.15
2023-04-07T17:31:17.845Z,8.98
2023-04-07T17:33:46.802Z,8.80
2023-04-07T17:36:14.991Z,9.15
2023-04-07T17:38:42.585Z,10.77
2023-04-07T17:41:09.976Z,11.70
2023-04-07T17:43:37.406Z,12.35
2023-04-07T17:46:06.197Z,11.48
2023-04-07T17:48:34.942Z,10.88
2023-04-07T17:51:02.414Z,10.45
2023-04-07T17:53:29.841Z,10.52
2023-04-07T17:55:57.476Z,11.23
2023-04-07T17:58:25.127Z,11.32
2023-04-07T18:00:52.680Z,10.88
2023-04-07T18:03:20.349Z,10.88
2023-04-07T18:08:19.486Z,11.38
2023-04-07T18:10:46.895Z,11.40
2023-04-07T18:13:14.317Z,13.18
2023-04-07T18:15:42.367Z,13.63
2023-04-07T18:20:37.743Z,14.93
2023-04-07T18:23:06.038Z,14.88
2023-04-07T18:25:34.999Z,15.48
2023-04-07T18:28:02.788Z,15.30
2023-04-07T18:30:30.402Z,15.95
2023-04-07T18:32:57.863Z,16.35
2023-04-07T18:35:26.257Z,16.88
2023-04-07T18:37:59.994Z,16.90
2023-04-07T18:40:29.859Z,18.30
2023-04-07T18:42:58.806Z,16.55
2023-04-07T18:45:28.033Z,19.67
2023-04-07T18:47:56.299Z,20.67
2023-04-07T18:50:27.098Z,20.05
2023-04-07T18:52:54.814Z,16.48
2023-04-07T18:55:22.594Z,16.45
2023-04-07T18:57:50.028Z,18.00
2023-04-07T19:00:18.887Z,20.33
2023-04-07T19:02:47.506Z,23.80
2023-04-07T19:05:15.357Z,20.35
2023-04-07T19:07:44.574Z,21.80
2023-04-07T19:10:12.024Z,18.67
2023-04-07T19:12:44.715Z,17.60
2023-04-07T19:15:14.594Z,19.92
2023-04-07T19:17:46.279Z,24.13
2023-04-07T19:20:13.687Z,23.33
2023-04-07T19:22:42.027Z,19.98
2023-04-07T19:25:12.565Z,20.30
2023-04-07T19:27:42.667Z,18.23
2023-04-07T19:30:10.649Z,23.20
2023-04-07T19:32:38.169Z,24.65
2023-04-07T19:35:07.807Z,26.27
2023-04-07T19:37:35.465Z,20.95
2023-04-07T19:40:05.173Z,21.73
2023-04-07T19:42:42.208Z,20.27
2023-04-07T19:45:12.710Z,20.67
2023-04-07T19:47:47.441Z,23.25
2023-04-07T19:50:16.621Z,22.48
2023-04-07T19:52:45.510Z,21.95
2023-04-07T19:55:13.511Z,24.15
2023-04-07T19:57:49.092Z,23.25
2023-04-07T20:00:16.987Z,20.50
2023-04-07T20:02:54.478Z,24.27
2023-04-07T20:05:28.275Z,26.92
2023-04-07T20:07:56.426Z,31.63
2023-04-07T20:10:24.397Z,29.48
2023-04-07T20:12:52.313Z,26.08
2023-04-07T20:17:57.886Z,24.88
2023-04-07T20:20:26.778Z,27.50
2023-04-07T20:22:54.523Z,33.90
2023-04-07T20:25:36.454Z,21.33
2023-04-07T20:28:03.846Z,23.92
2023-04-07T20:30:33.634Z,22.90
2023-04-07T20:33:01.283Z,25.00
2023-04-07T20:35:31.845Z,23.75
2023-04-07T20:38:04.839Z,25.15
2023-04-07T20:40:42.599Z,28.65
2023-04-07T20:43:12.081Z,25.23
2023-04-07T20:45:46.280Z,23.00
2023-04-07T20:48:17.298Z,27.73
2023-04-07T20:50:48.454Z,29.00
2023-04-07T20:53:18.687Z,29.83
2023-04-07T20:55:51.743Z,37.88
2023-04-07T20:58:21.597Z,24.33
2023-04-07T21:00:56.644Z,23.90
2023-04-07T21:03:25.938Z,41.10
2023-04-07T21:05:56.774Z,34.63
2023-04-07T21:08:27.571Z,23.20
2023-04-07T21:10:55.930Z,26.42
2023-04-07T21:13:25.983Z,31.27
2023-04-07T21:15:53.651Z,24.02
2023-04-07T21:18:21.134Z,21.40
2023-04-07T21:20:50.850Z,24.30
2023-04-07T21:23:21.181Z,24.25
2023-04-07T21:25:54.477Z,23.80
2023-04-07T21:28:21.967Z,23.13
2023-04-07T21:30:53.191Z,25.85
2023-04-07T21:33:20.788Z,26.60
2023-04-07T21:35:50.820Z,59.88
2023-04-07T21:38:19.584Z,40.03
2023-04-07T21:40:47.081Z,28.92
2023-04-07T21:43:14.465Z,23.55
2023-04-07T21:45:41.842Z,45.47
2023-04-07T21:48:09.284Z,56.67
2023-04-07T21:50:37.982Z,28.80
2023-04-07T21:53:05.521Z,29.88
2023-04-07T21:55:34.388Z,45.28
2023-04-07T21:58:02.185Z,29.52
2023-04-07T22:00:29.961Z,37.22
2023-04-07T22:03:00.373Z,44.17
2023-04-07T22:05:28.225Z,27.10
2023-04-07T22:07:58.551Z,32.45
2023-04-07T22:10:28.174Z,32.45
2023-04-07T22:12:57.216Z,27.70
2023-04-07T22:15:24.953Z,36.03
2023-04-07T22:17:52.737Z,27.98
2023-04-07T22:20:30.410Z,23.15
2023-04-07T22:25:25.723Z,22.75
2023-04-07T22:28:01.052Z,22.13
2023-04-07T22:30:45.504Z,33.78
2023-04-07T22:33:13.130Z,34.65
2023-04-07T22:35:40.696Z,21.58
2023-04-07T22:38:08.368Z,18.73
2023-04-07T22:40:37.624Z,21.08
2023-04-07T22:43:06.501Z,28.35
2023-04-07T22:45:35.305Z,30.05
2023-04-07T22:48:02.761Z,24.58
2023-04-07T22:50:32.674Z,24.25
2023-04-07T22:53:02.925Z,23.58
2023-04-07T22:55:30.382Z,24.33
2023-04-07T22:57:57.883Z,28.42
2023-04-07T23:00:35.401Z,21.33
2023-04-07T23:03:03.236Z,25.02
2023-04-07T23:07:58.093Z,33.30
2023-04-07T23:10:25.644Z,30.23
2023-04-07T23:12:53.632Z,39.35
2023-04-07T23:15:21.222Z,33.38
2023-04-07T23:17:49.998Z,37.22
2023-04-07T23:20:17.545Z,48.72
2023-04-07T23:22:45.590Z,45.75
2023-04-07T23:25:13.192Z,36.55
2023-04-07T23:27:40.604Z,50.83
2023-04-07T23:30:08.932Z,56.03
2023-04-07T23:32:36.359Z,50.47
2023-04-07T23:35:06.579Z,41.10
2023-04-07T23:37:33.998Z,54.03
2023-04-07T23:40:01.521Z,76.38
2023-04-07T23:42:28.993Z,68.60
2023-04-07T23:44:56.447Z,72.53
2023-04-07T23:47:23.885Z,56.20
2023-04-07T23:49:51.622Z,58.67
2023-04-07T23:52:21.803Z,43.83
2023-04-07T23:54:49.217Z,39.83
2023-04-07T23:57:16.623Z,31.15
2023-04-07T23:59:44.017Z,36.80
